sensor_id;sensor_type;location;lat;lon;timestamp;pressure;altitude;pressure_sealevel;temperature;humidity
8653;BME280;4364;52.426;9.424;2023-06-05T00:01:14;101756.31;;;12.82;71.28
8653;BME280;4364;52.426;9.424;2023-06-05T00:03:42;101749.75;;;12.78;71.38
8653;BME280;4364;52.426;9.424;2023-06-05T00:06:10;101751.66;;;12.77;70.76
8653;BME280;4364;52.426;9.424;2023-06-05T00:08:36;101747.78;;;12.63;71.65
8653;BME280;4364;52.426;9.424;2023-06-05T00:11:03;101748.63;;;12.69;71.69
8653;BME280;4364;52.426;9.424;2023-06-05T00:13:29;101746.41;;;12.66;71.88
8653;BME280;4364;52.426;9.424;2023-06-05T00:15:56;101751.28;;;12.58;72.31
8653;BME280;4364;52.426;9.424;2023-06-05T00:18:23;101751.00;;;12.55;72.13
8653;BME280;4364;52.426;9.424;2023-06-05T00:20:50;101749.34;;;12.54;72.44
8653;BME280;4364;52.426;9.424;2023-06-05T00:23:17;101751.25;;;12.48;72.94
8653;BME280;4364;52.426;9.424;2023-06-05T00:25:43;101755.28;;;12.40;73.61
8653;BME280;4364;52.426;9.424;2023-06-05T00:28:10;101751.44;;;12.36;73.96
8653;BME280;4364;52.426;9.424;2023-06-05T00:30:36;101748.97;;;12.30;74.19
8653;BME280;4364;52.426;9.424;2023-06-05T00:33:03;101755.44;;;12.23;74.65
8653;BME280;4364;52.426;9.424;2023-06-05T00:35:31;101751.34;;;12.26;74.60
8653;BME280;4364;52.426;9.424;2023-06-05T00:37:58;101748.38;;;12.28;73.97
8653;BME280;4364;52.426;9.424;2023-06-05T00:40:24;101748.38;;;12.28;74.39
8653;BME280;4364;52.426;9.424;2023-06-05T00:42:51;101746.50;;;12.28;74.12
8653;BME280;4364;52.426;9.424;2023-06-05T00:45:18;101753.81;;;12.28;74.74
8653;BME280;4364;52.426;9.424;2023-06-05T00:47:45;101745.34;;;12.24;74.35
8653;BME280;4364;52.426;9.424;2023-06-05T00:50:13;101751.88;;;12.18;74.94
8653;BME280;4364;52.426;9.424;2023-06-05T00:52:42;101746.72;;;12.21;74.67
8653;BME280;4364;52.426;9.424;2023-06-05T00:55:10;101743.69;;;12.18;75.03
8653;BME280;4364;52.426;9.424;2023-06-05T00:57:38;101743.41;;;12.19;75.26
8653;BME280;4364;52.426;9.424;2023-06-05T01:00:06;101740.97;;;12.18;75.08
8653;BME280;4364;52.426;9.424;2023-06-05T01:02:35;101738.50;;;12.16;75.55
8653;BME280;4364;52.426;9.424;2023-06-05T01:05:04;101733.53;;;12.08;74.94
8653;BME280;4364;52.426;9.424;2023-06-05T01:07:32;101737.28;;;12.02;75.65
8653;BME280;4364;52.426;9.424;2023-06-05T01:10:01;101736.78;;;12.05;75.26
8653;BME280;4364;52.426;9.424;2023-06-05T01:12:50;101729.38;;;12.00;75.66
8653;BME280;4364;52.426;9.424;2023-06-05T01:15:18;101740.25;;;11.95;76.13
8653;BME280;4364;52.426;9.424;2023-06-05T01:17:57;101725.22;;;11.93;76.80
8653;BME280;4364;52.426;9.424;2023-06-05T01:20:37;101730.88;;;11.86;76.84
8653;BME280;4364;52.426;9.424;2023-06-05T01:23:05;101731.44;;;11.88;76.68
8653;BME280;4364;52.426;9.424;2023-06-05T01:25:32;101730.03;;;11.85;77.18
8653;BME280;4364;52.426;9.424;2023-06-05T01:28:12;101733.81;;;11.79;77.26
8653;BME280;4364;52.426;9.424;2023-06-05T01:31:05;101728.41;;;11.84;77.05
8653;BME280;4364;52.426;9.424;2023-06-05T01:33:36;101728.91;;;11.76;77.08
8653;BME280;4364;52.426;9.424;2023-06-05T01:36:10;101727.78;;;11.77;76.72
8653;BME280;4364;52.426;9.424;2023-06-05T01:38:39;101721.97;;;11.63;77.87
8653;BME280;4364;52.426;9.424;2023-06-05T01:41:08;101720.31;;;11.62;77.06
8653;BME280;4364;52.426;9.424;2023-06-05T01:43:37;101719.66;;;11.50;77.64
8653;BME280;4364;52.426;9.424;2023-06-05T01:46:05;101724.50;;;11.43;77.86
8653;BME280;4364;52.426;9.424;2023-06-05T01:48:34;101723.56;;;11.32;77.85
8653;BME280;4364;52.426;9.424;2023-06-05T01:51:01;101727.50;;;11.41;77.48
8653;BME280;4364;52.426;9.424;2023-06-05T01:53:29;101725.53;;;11.37;77.98
8653;BME280;4364;52.426;9.424;2023-06-05T01:55:56;101723.88;;;11.36;78.08
8653;BME280;4364;52.426;9.424;2023-06-05T01:58:26;101726.44;;;11.20;79.29
8653;BME280;4364;52.426;9.424;2023-06-05T02:00:54;101727.59;;;11.02;80.04
8653;BME280;4364;52.426;9.424;2023-06-05T02:03:24;101728.06;;;10.94;80.05
8653;BME280;4364;52.426;9.424;2023-06-05T02:05:51;101725.91;;;10.96;79.89
8653;BME280;4364;52.426;9.424;2023-06-05T02:08:17;101719.88;;;10.94;79.44
8653;BME280;4364;52.426;9.424;2023-06-05T02:10:49;101723.06;;;10.86;80.27
8653;BME280;4364;52.426;9.424;2023-06-05T02:13:16;101721.69;;;10.83;80.48
8653;BME280;4364;52.426;9.424;2023-06-05T02:15:43;101717.31;;;10.82;80.40
8653;BME280;4364;52.426;9.424;2023-06-05T02:18:11;101714.47;;;10.72;81.66
8653;BME280;4364;52.426;9.424;2023-06-05T02:20:40;101717.19;;;10.72;81.13
8653;BME280;4364;52.426;9.424;2023-06-05T02:23:09;101722.06;;;10.70;81.48
8653;BME280;4364;52.426;9.424;2023-06-05T02:25:36;101723.81;;;10.59;82.33
8653;BME280;4364;52.426;9.424;2023-06-05T02:28:02;101721.03;;;10.54;81.96
8653;BME280;4364;52.426;9.424;2023-06-05T02:30:29;101711.50;;;10.51;81.89
8653;BME280;4364;52.426;9.424;2023-06-05T02:32:56;101713.22;;;10.41;82.63
8653;BME280;4364;52.426;9.424;2023-06-05T02:35:27;101720.09;;;10.26;83.80
8653;BME280;4364;52.426;9.424;2023-06-05T02:37:55;101712.59;;;10.33;83.58
8653;BME280;4364;52.426;9.424;2023-06-05T02:40:22;101707.06;;;10.28;83.07
8653;BME280;4364;52.426;9.424;2023-06-05T02:42:49;101711.94;;;10.26;83.75
8653;BME280;4364;52.426;9.424;2023-06-05T02:45:16;101713.72;;;10.20;83.66
8653;BME280;4364;52.426;9.424;2023-06-05T02:47:43;101702.53;;;10.17;84.16
8653;BME280;4364;52.426;9.424;2023-06-05T02:50:10;101699.19;;;10.10;83.92
8653;BME280;4364;52.426;9.424;2023-06-05T02:52:42;101703.47;;;10.23;83.90
8653;BME280;4364;52.426;9.424;2023-06-05T02:55:14;101704.34;;;10.28;83.20
8653;BME280;4364;52.426;9.424;2023-06-05T02:57:42;101697.53;;;10.26;83.83
8653;BME280;4364;52.426;9.424;2023-06-05T03:00:15;101711.13;;;10.26;83.25
8653;BME280;4364;52.426;9.424;2023-06-05T03:02:46;101708.41;;;10.26;83.61
8653;BME280;4364;52.426;9.424;2023-06-05T03:05:18;101706.34;;;10.16;83.12
8653;BME280;4364;52.426;9.424;2023-06-05T03:07:53;101699.34;;;10.03;84.70
8653;BME280;4364;52.426;9.424;2023-06-05T03:10:21;101703.47;;;10.06;84.68
8653;BME280;4364;52.426;9.424;2023-06-05T03:12:49;101703.91;;;9.97;85.56
8653;BME280;4364;52.426;9.424;2023-06-05T03:15:16;101704.72;;;9.81;86.73
8653;BME280;4364;52.426;9.424;2023-06-05T03:17:46;101701.53;;;9.84;86.59
8653;BME280;4364;52.426;9.424;2023-06-05T03:20:17;101697.53;;;9.92;86.50
8653;BME280;4364;52.426;9.424;2023-06-05T03:22:45;101700.25;;;9.92;86.14
8653;BME280;4364;52.426;9.424;2023-06-05T03:25:13;101696.56;;;9.81;86.91
8653;BME280;4364;52.426;9.424;2023-06-05T03:27:41;101699.78;;;9.78;86.85
8653;BME280;4364;52.426;9.424;2023-06-05T03:30:09;101691.88;;;9.76;86.41
8653;BME280;4364;52.426;9.424;2023-06-05T03:32:43;101685.72;;;9.81;86.29
8653;BME280;4364;52.426;9.424;2023-06-05T03:35:10;101697.56;;;9.75;87.30
8653;BME280;4364;52.426;9.424;2023-06-05T03:37:39;101694.09;;;9.79;86.66
8653;BME280;4364;52.426;9.424;2023-06-05T03:40:06;101692.84;;;9.87;86.18
8653;BME280;4364;52.426;9.424;2023-06-05T03:42:34;101702.59;;;9.83;86.03
8653;BME280;4364;52.426;9.424;2023-06-05T03:45:02;101703.81;;;9.75;85.49
8653;BME280;4364;52.426;9.424;2023-06-05T03:47:32;101698.69;;;9.62;86.21
8653;BME280;4364;52.426;9.424;2023-06-05T03:50:06;101695.66;;;9.58;86.98
8653;BME280;4364;52.426;9.424;2023-06-05T03:52:36;101691.47;;;9.68;86.64
8653;BME280;4364;52.426;9.424;2023-06-05T03:55:07;101692.28;;;9.68;85.90
8653;BME280;4364;52.426;9.424;2023-06-05T03:57:38;101694.69;;;9.64;85.80
8653;BME280;4364;52.426;9.424;2023-06-05T04:00:07;101693.03;;;9.63;86.04
8653;BME280;4364;52.426;9.424;2023-06-05T04:02:47;101694.34;;;9.61;86.71
8653;BME280;4364;52.426;9.424;2023-06-05T04:05:14;101697.31;;;9.59;87.41
8653;BME280;4364;52.426;9.424;2023-06-05T04:07:41;101698.28;;;9.53;87.92
8653;BME280;4364;52.426;9.424;2023-06-05T04:10:09;101694.03;;;9.57;88.25
8653;BME280;4364;52.426;9.424;2023-06-05T04:12:35;101697.16;;;9.66;87.85
8653;BME280;4364;52.426;9.424;2023-06-05T04:15:04;101694.19;;;9.68;87.15
8653;BME280;4364;52.426;9.424;2023-06-05T04:17:30;101693.19;;;9.74;87.32
8653;BME280;4364;52.426;9.424;2023-06-05T04:19:58;101696.97;;;9.73;87.25
8653;BME280;4364;52.426;9.424;2023-06-05T04:22:26;101696.50;;;9.76;87.74
8653;BME280;4364;52.426;9.424;2023-06-05T04:24:54;101698.44;;;9.80;87.17
8653;BME280;4364;52.426;9.424;2023-06-05T04:27:20;101700.59;;;9.78;87.58
8653;BME280;4364;52.426;9.424;2023-06-05T04:29:47;101702.50;;;9.78;87.67
8653;BME280;4364;52.426;9.424;2023-06-05T04:32:16;101700.03;;;9.76;87.67
8653;BME280;4364;52.426;9.424;2023-06-05T04:34:43;101706.75;;;9.74;88.19
8653;BME280;4364;52.426;9.424;2023-06-05T04:37:10;101704.41;;;9.94;87.71
8653;BME280;4364;52.426;9.424;2023-06-05T04:39:37;101705.38;;;9.88;87.82
8653;BME280;4364;52.426;9.424;2023-06-05T04:42:04;101696.97;;;9.90;87.50
8653;BME280;4364;52.426;9.424;2023-06-05T04:44:43;101701.69;;;9.94;87.70
8653;BME280;4364;52.426;9.424;2023-06-05T04:47:10;101704.72;;;9.98;87.12
8653;BME280;4364;52.426;9.424;2023-06-05T04:49:37;101703.97;;;10.02;87.67
8653;BME280;4364;52.426;9.424;2023-06-05T04:52:05;101704.63;;;10.10;87.43
8653;BME280;4364;52.426;9.424;2023-06-05T04:54:32;101703.56;;;10.11;86.69
8653;BME280;4364;52.426;9.424;2023-06-05T04:56:59;101710.19;;;10.20;87.25
8653;BME280;4364;52.426;9.424;2023-06-05T04:59:28;101702.44;;;10.29;86.63
8653;BME280;4364;52.426;9.424;2023-06-05T05:01:54;101699.81;;;10.34;86.90
8653;BME280;4364;52.426;9.424;2023-06-05T05:04:22;101696.66;;;10.42;86.63
8653;BME280;4364;52.426;9.424;2023-06-05T05:06:51;101697.63;;;10.53;86.55
8653;BME280;4364;52.426;9.424;2023-06-05T05:09:19;101694.84;;;10.70;86.08
8653;BME280;4364;52.426;9.424;2023-06-05T05:11:46;101697.44;;;10.82;85.85
8653;BME280;4364;52.426;9.424;2023-06-05T05:14:12;101695.53;;;10.82;86.34
8653;BME280;4364;52.426;9.424;2023-06-05T05:16:39;101695.09;;;10.90;85.94
8653;BME280;4364;52.426;9.424;2023-06-05T05:19:08;101692.88;;;10.87;86.34
8653;BME280;4364;52.426;9.424;2023-06-05T05:21:35;101699.00;;;11.00;86.46
8653;BME280;4364;52.426;9.424;2023-06-05T05:24:03;101696.16;;;11.11;86.38
8653;BME280;4364;52.426;9.424;2023-06-05T05:26:30;101696.56;;;11.25;85.10
8653;BME280;4364;52.426;9.424;2023-06-05T05:28:56;101700.09;;;11.26;85.72
8653;BME280;4364;52.426;9.424;2023-06-05T05:31:23;101691.19;;;11.36;85.63
8653;BME280;4364;52.426;9.424;2023-06-05T05:33:51;101689.41;;;11.46;85.39
8653;BME280;4364;52.426;9.424;2023-06-05T05:36:17;101692.03;;;11.68;85.27
8653;BME280;4364;52.426;9.424;2023-06-05T05:38:44;101691.84;;;11.80;83.49
8653;BME280;4364;52.426;9.424;2023-06-05T05:41:11;101688.53;;;12.05;82.72
8653;BME280;4364;52.426;9.424;2023-06-05T05:43:37;101692.22;;;12.32;81.68
8653;BME280;4364;52.426;9.424;2023-06-05T05:46:04;101694.31;;;12.67;81.23
8653;BME280;4364;52.426;9.424;2023-06-05T05:48:30;101692.78;;;13.02;79.99
8653;BME280;4364;52.426;9.424;2023-06-05T05:50:57;101697.47;;;13.22;76.39
8653;BME280;4364;52.426;9.424;2023-06-05T05:53:23;101697.78;;;13.36;76.14
8653;BME280;4364;52.426;9.424;2023-06-05T05:55:50;101695.91;;;13.57;74.96
8653;BME280;4364;52.426;9.424;2023-06-05T05:58:17;101700.81;;;13.76;74.68
8653;BME280;4364;52.426;9.424;2023-06-05T06:00:43;101699.97;;;14.01;74.15
8653;BME280;4364;52.426;9.424;2023-06-05T06:03:10;101713.63;;;14.21;72.52
8653;BME280;4364;52.426;9.424;2023-06-05T06:05:38;101710.91;;;14.01;73.56
8653;BME280;4364;52.426;9.424;2023-06-05T06:08:05;101714.44;;;14.27;72.61
8653;BME280;4364;52.426;9.424;2023-06-05T06:10:32;101717.38;;;14.46;71.65
8653;BME280;4364;52.426;9.424;2023-06-05T06:12:59;101718.75;;;14.54;70.97
8653;BME280;4364;52.426;9.424;2023-06-05T06:15:27;101712.72;;;14.62;70.46
8653;BME280;4364;52.426;9.424;2023-06-05T06:17:54;101713.00;;;14.60;69.98
8653;BME280;4364;52.426;9.424;2023-06-05T06:20:25;101712.09;;;14.80;70.39
8653;BME280;4364;52.426;9.424;2023-06-05T06:22:51;101729.81;;;14.98;68.97
8653;BME280;4364;52.426;9.424;2023-06-05T06:25:20;101725.22;;;14.84;69.26
8653;BME280;4364;52.426;9.424;2023-06-05T06:27:47;101728.16;;;14.97;69.30
8653;BME280;4364;52.426;9.424;2023-06-05T06:30:16;101732.72;;;15.17;68.24
8653;BME280;4364;52.426;9.424;2023-06-05T06:32:42;101730.22;;;15.21;68.88
8653;BME280;4364;52.426;9.424;2023-06-05T06:35:09;101724.94;;;15.35;68.52
8653;BME280;4364;52.426;9.424;2023-06-05T06:37:36;101726.19;;;15.53;67.02
8653;BME280;4364;52.426;9.424;2023-06-05T06:40:03;101727.59;;;15.50;66.81
8653;BME280;4364;52.426;9.424;2023-06-05T06:42:35;101723.53;;;15.43;67.08
8653;BME280;4364;52.426;9.424;2023-06-05T06:45:26;101718.19;;;15.56;67.22
8653;BME280;4364;52.426;9.424;2023-06-05T06:47:53;101718.63;;;15.79;65.78
8653;BME280;4364;52.426;9.424;2023-06-05T06:50:33;101721.97;;;15.66;65.85
8653;BME280;4364;52.426;9.424;2023-06-05T06:52:59;101724.69;;;15.71;65.90
8653;BME280;4364;52.426;9.424;2023-06-05T06:55:26;101728.97;;;15.87;65.55
8653;BME280;4364;52.426;9.424;2023-06-05T06:57:53;101717.28;;;16.30;64.21
8653;BME280;4364;52.426;9.424;2023-06-05T07:00:19;101720.75;;;16.65;62.92
8653;BME280;4364;52.426;9.424;2023-06-05T07:02:46;101715.72;;;16.96;62.28
8653;BME280;4364;52.426;9.424;2023-06-05T07:05:14;101711.50;;;17.23;61.22
8653;BME280;4364;52.426;9.424;2023-06-05T07:07:42;101722.13;;;17.11;60.90
8653;BME280;4364;52.426;9.424;2023-06-05T07:10:09;101719.97;;;16.83;61.21
8653;BME280;4364;52.426;9.424;2023-06-05T07:12:35;101721.72;;;16.98;61.78
8653;BME280;4364;52.426;9.424;2023-06-05T07:15:03;101726.88;;;17.24;60.25
8653;BME280;4364;52.426;9.424;2023-06-05T07:17:29;101723.53;;;17.46;59.45
8653;BME280;4364;52.426;9.424;2023-06-05T07:19:57;101718.03;;;17.46;59.31
8653;BME280;4364;52.426;9.424;2023-06-05T07:22:23;101722.41;;;17.28;59.80
8653;BME280;4364;52.426;9.424;2023-06-05T07:24:55;101722.47;;;17.23;60.52
8653;BME280;4364;52.426;9.424;2023-06-05T07:27:21;101726.41;;;17.55;59.23
8653;BME280;4364;52.426;9.424;2023-06-05T07:29:48;101716.16;;;17.93;58.04
8653;BME280;4364;52.426;9.424;2023-06-05T07:32:17;101715.78;;;18.14;57.52
8653;BME280;4364;52.426;9.424;2023-06-05T07:34:44;101717.06;;;18.49;55.74
8653;BME280;4364;52.426;9.424;2023-06-05T07:37:11;101718.16;;;18.62;55.45
8653;BME280;4364;52.426;9.424;2023-06-05T07:39:38;101720.72;;;18.86;54.68
8653;BME280;4364;52.426;9.424;2023-06-05T07:42:05;101712.34;;;18.64;53.91
8653;BME280;4364;52.426;9.424;2023-06-05T07:44:32;101725.19;;;18.41;54.67
8653;BME280;4364;52.426;9.424;2023-06-05T07:46:59;101711.84;;;18.62;55.04
8653;BME280;4364;52.426;9.424;2023-06-05T07:49:30;101712.63;;;19.04;53.60
8653;BME280;4364;52.426;9.424;2023-06-05T07:51:58;101715.38;;;19.04;54.26
8653;BME280;4364;52.426;9.424;2023-06-05T07:54:25;101712.81;;;19.07;54.15
8653;BME280;4364;52.426;9.424;2023-06-05T07:56:51;101710.91;;;19.08;54.50
8653;BME280;4364;52.426;9.424;2023-06-05T07:59:18;101715.50;;;19.35;53.40
8653;BME280;4364;52.426;9.424;2023-06-05T08:01:51;101718.22;;;19.13;53.34
8653;BME280;4364;52.426;9.424;2023-06-05T08:04:18;101713.72;;;19.17;52.57
8653;BME280;4364;52.426;9.424;2023-06-05T08:06:46;101716.41;;;19.44;52.25
8653;BME280;4364;52.426;9.424;2023-06-05T08:09:13;101722.50;;;19.78;50.78
8653;BME280;4364;52.426;9.424;2023-06-05T08:11:39;101714.47;;;19.90;50.22
8653;BME280;4364;52.426;9.424;2023-06-05T08:14:08;101717.88;;;19.96;49.54
8653;BME280;4364;52.426;9.424;2023-06-05T08:16:35;101719.84;;;19.95;50.02
8653;BME280;4364;52.426;9.424;2023-06-05T08:19:02;101714.28;;;19.87;50.18
8653;BME280;4364;52.426;9.424;2023-06-05T08:21:29;101718.97;;;19.86;50.29
8653;BME280;4364;52.426;9.424;2023-06-05T08:23:56;101716.81;;;19.60;50.00
8653;BME280;4364;52.426;9.424;2023-06-05T08:26:23;101708.38;;;19.57;50.09
8653;BME280;4364;52.426;9.424;2023-06-05T08:28:50;101710.94;;;19.76;50.01
8653;BME280;4364;52.426;9.424;2023-06-05T08:31:17;101701.91;;;19.61;50.68
8653;BME280;4364;52.426;9.424;2023-06-05T08:33:43;101699.34;;;19.88;50.17
8653;BME280;4364;52.426;9.424;2023-06-05T08:36:09;101699.19;;;19.93;49.79
8653;BME280;4364;52.426;9.424;2023-06-05T08:38:36;101699.25;;;20.02;50.27
8653;BME280;4364;52.426;9.424;2023-06-05T08:41:07;101682.59;;;20.15;49.93
8653;BME280;4364;52.426;9.424;2023-06-05T08:43:41;101692.22;;;20.27;50.44
8653;BME280;4364;52.426;9.424;2023-06-05T08:46:10;101685.75;;;20.31;50.19
8653;BME280;4364;52.426;9.424;2023-06-05T08:48:41;101679.78;;;20.47;49.26
8653;BME280;4364;52.426;9.424;2023-06-05T08:51:17;101682.66;;;20.33;49.85
8653;BME280;4364;52.426;9.424;2023-06-05T08:53:51;101677.19;;;20.50;48.73
8653;BME280;4364;52.426;9.424;2023-06-05T08:56:18;101682.13;;;20.71;49.13
8653;BME280;4364;52.426;9.424;2023-06-05T08:58:46;101679.91;;;20.82;47.00
8653;BME280;4364;52.426;9.424;2023-06-05T09:01:12;101674.84;;;21.01;45.72
8653;BME280;4364;52.426;9.424;2023-06-05T09:03:39;101673.56;;;20.90;46.71
8653;BME280;4364;52.426;9.424;2023-06-05T09:06:06;101675.53;;;21.16;46.25
8653;BME280;4364;52.426;9.424;2023-06-05T09:08:33;101679.44;;;21.32;45.65
8653;BME280;4364;52.426;9.424;2023-06-05T09:11:22;101678.63;;;21.49;45.49
8653;BME280;4364;52.426;9.424;2023-06-05T09:13:49;101682.19;;;21.67;45.04
8653;BME280;4364;52.426;9.424;2023-06-05T09:16:20;101677.31;;;21.64;44.23
8653;BME280;4364;52.426;9.424;2023-06-05T09:18:55;101676.88;;;21.92;44.17
8653;BME280;4364;52.426;9.424;2023-06-05T09:21:24;101678.34;;;21.98;42.51
8653;BME280;4364;52.426;9.424;2023-06-05T09:27:01;101664.88;;;22.26;42.21
8653;BME280;4364;52.426;9.424;2023-06-05T09:29:30;101672.09;;;22.48;42.09
8653;BME280;4364;52.426;9.424;2023-06-05T09:31:58;101672.97;;;22.40;42.72
8653;BME280;4364;52.426;9.424;2023-06-05T09:34:30;101675.06;;;22.73;42.41
8653;BME280;4364;52.426;9.424;2023-06-05T09:37:01;101672.75;;;22.75;40.56
8653;BME280;4364;52.426;9.424;2023-06-05T09:39:29;101674.25;;;22.72;40.49
8653;BME280;4364;52.426;9.424;2023-06-05T09:41:58;101665.09;;;22.72;39.13
8653;BME280;4364;52.426;9.424;2023-06-05T09:44:26;101659.94;;;22.70;38.45
8653;BME280;4364;52.426;9.424;2023-06-05T09:47:05;101664.59;;;23.00;38.02
8653;BME280;4364;52.426;9.424;2023-06-05T09:52:11;101662.34;;;23.35;38.48
8653;BME280;4364;52.426;9.424;2023-06-05T09:54:39;101662.31;;;23.56;37.82
8653;BME280;4364;52.426;9.424;2023-06-05T09:57:08;101659.16;;;23.45;37.79
8653;BME280;4364;52.426;9.424;2023-06-05T09:59:48;101662.13;;;23.40;38.42
8653;BME280;4364;52.426;9.424;2023-06-05T10:02:16;101658.41;;;23.57;36.64
8653;BME280;4364;52.426;9.424;2023-06-05T10:04:52;101657.19;;;23.46;37.37
8653;BME280;4364;52.426;9.424;2023-06-05T10:07:20;101657.69;;;23.60;37.07
8653;BME280;4364;52.426;9.424;2023-06-05T10:09:49;101646.31;;;23.86;37.97
8653;BME280;4364;52.426;9.424;2023-06-05T10:12:16;101639.75;;;24.03;33.97
8653;BME280;4364;52.426;9.424;2023-06-05T10:14:43;101649.47;;;24.10;32.60
8653;BME280;4364;52.426;9.424;2023-06-05T10:17:11;101639.28;;;23.89;32.97
8653;BME280;4364;52.426;9.424;2023-06-05T10:19:42;101647.38;;;24.07;33.56
8653;BME280;4364;52.426;9.424;2023-06-05T10:22:13;101640.34;;;24.21;33.85
8653;BME280;4364;52.426;9.424;2023-06-05T10:24:45;101634.19;;;24.28;33.46
8653;BME280;4364;52.426;9.424;2023-06-05T10:27:40;101624.09;;;24.60;34.42
8653;BME280;4364;52.426;9.424;2023-06-05T10:33:35;101623.06;;;24.40;32.65
8653;BME280;4364;52.426;9.424;2023-06-05T10:36:25;101619.34;;;24.49;33.64
8653;BME280;4364;52.426;9.424;2023-06-05T10:38:58;101619.06;;;24.78;32.79
8653;BME280;4364;52.426;9.424;2023-06-05T10:41:26;101627.69;;;24.49;33.12
8653;BME280;4364;52.426;9.424;2023-06-05T10:43:53;101619.81;;;24.51;32.50
8653;BME280;4364;52.426;9.424;2023-06-05T10:46:31;101609.44;;;24.88;32.48
8653;BME280;4364;52.426;9.424;2023-06-05T10:51:40;101600.69;;;25.02;28.01
8653;BME280;4364;52.426;9.424;2023-06-05T10:57:02;101612.22;;;25.17;26.42
8653;BME280;4364;52.426;9.424;2023-06-05T10:59:37;101605.00;;;25.28;26.03
8653;BME280;4364;52.426;9.424;2023-06-05T11:17:49;101584.84;;;25.95;25.44
8653;BME280;4364;52.426;9.424;2023-06-05T11:25:28;101589.06;;;25.73;26.27
8653;BME280;4364;52.426;9.424;2023-06-05T11:27:58;101588.63;;;26.02;26.85
8653;BME280;4364;52.426;9.424;2023-06-05T11:30:29;101578.66;;;26.01;24.75
8653;BME280;4364;52.426;9.424;2023-06-05T11:33:16;101581.22;;;25.94;26.38
8653;BME280;4364;52.426;9.424;2023-06-05T11:35:45;101570.16;;;26.30;24.90
8653;BME280;4364;52.426;9.424;2023-06-05T11:38:21;101568.19;;;26.14;25.18
8653;BME280;4364;52.426;9.424;2023-06-05T11:40:51;101569.28;;;26.45;24.37
8653;BME280;4364;52.426;9.424;2023-06-05T11:43:17;101563.75;;;26.65;25.15
8653;BME280;4364;52.426;9.424;2023-06-05T11:45:52;101559.16;;;26.37;24.56
8653;BME280;4364;52.426;9.424;2023-06-05T11:48:19;101559.91;;;26.53;25.00
8653;BME280;4364;52.426;9.424;2023-06-05T11:51:03;101554.53;;;26.44;24.72
8653;BME280;4364;52.426;9.424;2023-06-05T11:53:31;101563.53;;;26.38;24.87
8653;BME280;4364;52.426;9.424;2023-06-05T11:55:58;101563.00;;;26.48;25.32
8653;BME280;4364;52.426;9.424;2023-06-05T11:58:35;101562.28;;;26.71;25.12
8653;BME280;4364;52.426;9.424;2023-06-05T12:01:16;101567.16;;;26.03;24.49
8653;BME280;4364;52.426;9.424;2023-06-05T12:04:05;101551.78;;;25.45;24.61
8653;BME280;4364;52.426;9.424;2023-06-05T12:06:32;101557.34;;;25.45;24.83
8653;BME280;4364;52.426;9.424;2023-06-05T12:09:11;101553.91;;;25.84;26.11
8653;BME280;4364;52.426;9.424;2023-06-05T12:11:39;101550.59;;;26.10;25.08
8653;BME280;4364;52.426;9.424;2023-06-05T12:14:06;101552.28;;;26.15;25.04
8653;BME280;4364;52.426;9.424;2023-06-05T12:16:37;101546.66;;;26.31;25.19
8653;BME280;4364;52.426;9.424;2023-06-05T12:19:17;101553.31;;;26.61;24.74
8653;BME280;4364;52.426;9.424;2023-06-05T12:21:47;101546.44;;;26.75;24.35
8653;BME280;4364;52.426;9.424;2023-06-05T12:24:14;101551.63;;;26.96;23.71
8653;BME280;4364;52.426;9.424;2023-06-05T12:26:52;101556.81;;;27.17;23.51
8653;BME280;4364;52.426;9.424;2023-06-05T12:29:24;101551.66;;;27.19;23.89
8653;BME280;4364;52.426;9.424;2023-06-05T12:31:51;101545.25;;;26.95;22.98
8653;BME280;4364;52.426;9.424;2023-06-05T12:34:19;101552.44;;;26.96;22.08
8653;BME280;4364;52.426;9.424;2023-06-05T12:37:26;101537.09;;;26.87;22.30
8653;BME280;4364;52.426;9.424;2023-06-05T12:39:56;101542.78;;;27.13;22.49
8653;BME280;4364;52.426;9.424;2023-06-05T12:42:22;101538.19;;;27.25;24.34
8653;BME280;4364;52.426;9.424;2023-06-05T12:44:49;101542.25;;;27.27;22.86
8653;BME280;4364;52.426;9.424;2023-06-05T12:47:16;101533.81;;;27.24;22.34
8653;BME280;4364;52.426;9.424;2023-06-05T12:49:43;101534.66;;;27.28;22.45
8653;BME280;4364;52.426;9.424;2023-06-05T12:52:09;101529.81;;;27.02;22.84
8653;BME280;4364;52.426;9.424;2023-06-05T12:54:36;101531.31;;;27.18;22.56
8653;BME280;4364;52.426;9.424;2023-06-05T12:57:04;101524.22;;;27.02;22.64
8653;BME280;4364;52.426;9.424;2023-06-05T12:59:38;101514.69;;;26.44;22.99
8653;BME280;4364;52.426;9.424;2023-06-05T13:02:05;101519.94;;;26.65;23.23
8653;BME280;4364;52.426;9.424;2023-06-05T13:04:31;101509.03;;;26.79;22.85
8653;BME280;4364;52.426;9.424;2023-06-05T13:07:01;101505.56;;;26.63;23.80
8653;BME280;4364;52.426;9.424;2023-06-05T13:09:29;101508.47;;;26.90;23.08
8653;BME280;4364;52.426;9.424;2023-06-05T13:11:55;101515.22;;;26.89;23.41
8653;BME280;4364;52.426;9.424;2023-06-05T13:14:26;101514.63;;;27.22;24.00
8653;BME280;4364;52.426;9.424;2023-06-05T13:16:52;101501.97;;;27.28;22.93
8653;BME280;4364;52.426;9.424;2023-06-05T13:19:19;101494.41;;;27.06;23.00
8653;BME280;4364;52.426;9.424;2023-06-05T13:21:47;101488.13;;;27.12;23.33
8653;BME280;4364;52.426;9.424;2023-06-05T13:24:13;101495.03;;;26.76;24.51
8653;BME280;4364;52.426;9.424;2023-06-05T13:26:40;101489.31;;;26.88;23.80
8653;BME280;4364;52.426;9.424;2023-06-05T13:29:09;101488.13;;;26.89;22.54
8653;BME280;4364;52.426;9.424;2023-06-05T13:31:36;101488.13;;;26.89;22.76
8653;BME280;4364;52.426;9.424;2023-06-05T13:34:03;101481.44;;;26.94;22.94
8653;BME280;4364;52.426;9.424;2023-06-05T13:36:29;101475.25;;;26.85;23.49
8653;BME280;4364;52.426;9.424;2023-06-05T13:38:56;101467.75;;;26.66;23.11
8653;BME280;4364;52.426;9.424;2023-06-05T13:41:22;101463.38;;;27.11;22.81
8653;BME280;4364;52.426;9.424;2023-06-05T13:43:49;101476.66;;;27.17;22.76
8653;BME280;4364;52.426;9.424;2023-06-05T13:46:15;101457.06;;;27.14;22.83
8653;BME280;4364;52.426;9.424;2023-06-05T13:48:42;101451.88;;;27.35;22.99
8653;BME280;4364;52.426;9.424;2023-06-05T13:51:09;101464.06;;;27.04;23.73
8653;BME280;4364;52.426;9.424;2023-06-05T13:53:35;101467.50;;;26.74;23.66
8653;BME280;4364;52.426;9.424;2023-06-05T13:56:03;101463.88;;;26.93;23.88
8653;BME280;4364;52.426;9.424;2023-06-05T13:58:30;101467.91;;;26.96;22.65